createdAt,value
2019-04-21T00:01:16.444Z,100609.36
2019-04-21T00:03:53.277Z,100611.95
2019-04-21T00:06:35.295Z,100611.35
2019-04-21T00:09:22.614Z,100609.09
2019-04-21T00:11:42.147Z,100607.34
2019-04-21T00:14:05.595Z,100601.70
2019-04-21T00:16:34.758Z,100595.66
2019-04-21T00:19:03.253Z,100588.24
2019-04-21T00:21:36.401Z,100581.35
2019-04-21T00:24:23.295Z,100582.80
2019-04-21T00:27:18.597Z,100574.78
2019-04-21T00:29:48.155Z,100571.53
2019-04-21T00:32:03.369Z,100571.65
2019-04-21T00:34:17.854Z,100569.38
2019-04-21T00:37:00.157Z,100560.44
2019-04-21T00:39:49.582Z,100566.20
2019-04-21T00:42:11.205Z,100565.30
2019-04-21T00:44:35.648Z,100559.17
2019-04-21T00:47:06.907Z,100557.95
2019-04-21T00:49:45.346Z,100558.46
2019-04-21T00:52:33.378Z,100559.41
2019-04-21T00:54:57.031Z,100563.27
2019-04-21T00:57:32.571Z,100558.48
2019-04-21T01:00:00.827Z,100559.13
2019-04-21T01:02:36.374Z,100554.83
2019-04-21T01:05:09.114Z,100555.14
2019-04-21T01:07:32.938Z,100551.58
2019-04-21T01:09:58.333Z,100546.01
2019-04-21T01:12:37.996Z,100546.48
2019-04-21T01:15:14.019Z,100541.47
2019-04-21T01:17:36.603Z,100538.84
2019-04-21T01:20:01.138Z,100534.63
2019-04-21T01:22:18.669Z,100536.95
2019-04-21T01:24:59.268Z,100536.84
2019-04-21T01:27:39.839Z,100532.36
2019-04-21T01:30:14.145Z,100531.53
2019-04-21T01:32:46.849Z,100529.92
2019-04-21T01:35:16.401Z,100528.24
2019-04-21T01:37:49.749Z,100529.68
2019-04-21T01:40:25.957Z,100523.36
2019-04-21T01:42:45.970Z,100525.91
2019-04-21T01:45:16.672Z,100523.45
2019-04-21T01:47:46.446Z,100525.56
2019-04-21T01:50:14.374Z,100525.53
2019-04-21T01:52:57.653Z,100521.64
2019-04-21T01:55:41.867Z,100522.20
2019-04-21T01:58:01.422Z,100519.83
2019-04-21T02:00:39.059Z,100518.49
2019-04-21T02:03:26.457Z,100514.17
2019-04-21T02:05:55.283Z,100511.95
2019-04-21T02:08:20.135Z,100505.77
2019-04-21T02:10:54.650Z,100504.81
2019-04-21T02:13:17.154Z,100502.09
2019-04-21T02:15:59.353Z,100502.37
2019-04-21T02:18:22.125Z,100499.59
2019-04-21T02:20:41.019Z,100491.78
2019-04-21T02:26:01.855Z,100491.66
2019-04-21T02:28:36.822Z,100492.19
2019-04-21T02:31:18.122Z,100492.23
2019-04-21T02:36:22.728Z,100489.05
2019-04-21T02:38:48.301Z,100486.44
2019-04-21T02:41:09.508Z,100481.25
2019-04-21T02:43:44.918Z,100479.43
2019-04-21T02:48:59.797Z,100466.86
2019-04-21T02:51:25.732Z,100460.66
2019-04-21T02:54:39.028Z,100460.27
2019-04-21T02:56:28.043Z,100455.94
2019-04-21T03:01:48.507Z,100455.36
2019-04-21T03:04:36.215Z,100457.78
2019-04-21T03:07:17.864Z,100454.10
2019-04-21T03:09:35.879Z,100454.50
2019-04-21T03:12:24.613Z,100453.58
2019-04-21T03:14:56.483Z,100450.92
2019-04-21T03:17:22.390Z,100454.89
2019-04-21T03:19:50.028Z,100447.44
2019-04-21T03:22:20.415Z,100443.86
2019-04-21T03:29:59.240Z,100432.64
2019-04-21T03:37:40.166Z,100426.77
2019-04-21T03:40:05.146Z,100418.95
2019-04-21T03:42:33.809Z,100412.98
2019-04-21T03:45:06.768Z,100411.88
2019-04-21T03:47:30.795Z,100411.76
2019-04-21T03:50:20.829Z,100416.84
2019-04-21T03:52:39.497Z,100415.09
2019-04-21T04:08:50.011Z,100403.64
2019-04-21T04:11:19.568Z,100406.61
2019-04-21T04:14:04.100Z,100402.80
2019-04-21T04:16:37.467Z,100402.33
2019-04-21T04:19:09.444Z,100404.28
2019-04-21T04:24:22.351Z,100404.23
2019-04-21T04:27:02.388Z,100400.19
2019-04-21T04:29:22.564Z,100402.17
2019-04-21T04:34:24.859Z,100396.03
2019-04-21T04:39:36.008Z,100389.68
2019-04-21T04:42:16.133Z,100388.09
2019-04-21T04:52:27.729Z,100385.00
2019-04-21T04:54:50.485Z,100387.87
2019-04-21T05:04:50.061Z,100379.89
2019-04-21T05:07:17.191Z,100386.31
2019-04-21T05:09:43.149Z,100371.92
2019-04-21T05:12:24.855Z,100375.27
2019-04-21T05:17:21.570Z,100376.48
2019-04-21T05:19:58.977Z,100375.01
2019-04-21T05:22:20.281Z,100378.53
2019-04-21T05:24:37.524Z,100376.75
2019-04-21T05:27:07.364Z,100374.34
2019-04-21T05:29:53.833Z,100371.03
2019-04-21T05:32:41.716Z,100366.25
2019-04-21T05:35:07.955Z,100376.88
2019-04-21T05:37:42.913Z,100368.65
2019-04-21T05:40:13.852Z,100366.00
2019-04-21T05:42:53.283Z,100367.45
2019-04-21T05:45:29.783Z,100365.28
2019-04-21T05:48:06.072Z,100370.67
2019-04-21T05:50:27.536Z,100370.52
2019-04-21T05:52:53.511Z,100363.95
2019-04-21T05:55:40.574Z,100369.35
2019-04-21T05:58:21.714Z,100367.77
2019-04-21T06:01:01.580Z,100365.56
2019-04-21T06:03:18.413Z,100362.20
2019-04-21T06:05:51.116Z,100363.90
2019-04-21T06:08:13.222Z,100358.06
2019-04-21T06:10:48.379Z,100360.09
2019-04-21T06:13:18.733Z,100360.69
2019-04-21T06:15:54.673Z,100359.63
2019-04-21T06:18:20.247Z,100357.98
2019-04-21T06:20:54.701Z,100361.77
2019-04-21T06:23:25.725Z,100357.31
2019-04-21T06:26:08.325Z,100353.66
2019-04-21T06:28:33.688Z,100354.67
2019-04-21T06:33:39.477Z,100349.80
2019-04-21T06:38:59.539Z,100342.55
2019-04-21T06:41:26.482Z,100350.27
2019-04-21T06:43:56.315Z,100348.80
2019-04-21T06:46:26.365Z,100347.37
2019-04-21T06:51:27.256Z,100349.44
2019-04-21T06:54:09.602Z,100345.06
2019-04-21T06:56:36.520Z,100342.45
2019-04-21T06:59:01.510Z,100340.38
2019-04-21T07:01:39.131Z,100337.12
2019-04-21T07:04:13.376Z,100336.83
2019-04-21T07:06:40.381Z,100336.75
2019-04-21T07:09:16.930Z,100336.30
2019-04-21T07:11:34.963Z,100329.80
2019-04-21T07:14:25.645Z,100333.71
2019-04-21T07:16:46.365Z,100331.97
2019-04-21T07:19:20.374Z,100335.07
2019-04-21T07:21:41.042Z,100340.52
2019-04-21T07:24:14.452Z,100333.16
2019-04-21T07:26:42.417Z,100332.42
2019-04-21T07:29:18.069Z,100333.04
2019-04-21T07:31:54.368Z,100329.98
2019-04-21T07:34:22.660Z,100325.97
2019-04-21T07:36:54.855Z,100322.16
2019-04-21T07:39:18.007Z,100328.17
2019-04-21T07:41:44.069Z,100327.92
2019-04-21T07:44:15.089Z,100329.41
2019-04-21T07:46:46.310Z,100328.36
2019-04-21T07:49:40.027Z,100329.55
2019-04-21T07:52:18.807Z,100332.50
2019-04-21T07:54:57.408Z,100327.41
2019-04-21T07:57:16.833Z,100328.69
2019-04-21T08:02:27.444Z,100318.87
2019-04-21T08:05:03.007Z,100325.98
2019-04-21T08:07:32.321Z,100320.59
2019-04-21T08:09:51.081Z,100320.23
2019-04-21T08:12:24.419Z,100323.52
2019-04-21T08:14:57.486Z,100321.80
2019-04-21T08:17:34.865Z,100323.72
2019-04-21T08:19:59.135Z,100324.22
2019-04-21T08:22:35.033Z,100312.11
2019-04-21T08:25:06.945Z,100315.55
2019-04-21T08:27:40.361Z,100316.45
2019-04-21T08:30:09.561Z,100311.41
2019-04-21T08:32:44.331Z,100306.08
2019-04-21T08:35:49.514Z,100301.19
2019-04-21T08:37:36.993Z,100309.65
2019-04-21T08:42:38.286Z,100301.64
2019-04-21T08:45:15.197Z,100303.33
2019-04-21T08:47:46.242Z,100304.48
2019-04-21T08:50:15.237Z,100304.08
2019-04-21T08:52:50.927Z,100308.59
2019-04-21T08:55:18.386Z,100304.55
2019-04-21T08:58:12.161Z,100298.91
2019-04-21T09:00:45.486Z,100304.39
2019-04-21T09:03:06.768Z,100298.08
2019-04-21T09:05:37.837Z,100296.37
2019-04-21T09:08:17.970Z,100296.38
2019-04-21T09:10:39.678Z,100291.70
2019-04-21T09:13:10.274Z,100294.47
2019-04-21T09:15:42.963Z,100287.86
2019-04-21T09:18:08.443Z,100285.41
2019-04-21T09:20:46.109Z,100279.44
2019-04-21T09:23:13.570Z,100274.93
2019-04-21T09:25:46.823Z,100274.30
2019-04-21T09:28:12.196Z,100275.82
2019-04-21T09:30:43.698Z,100269.85
2019-04-21T09:33:07.474Z,100267.86
2019-04-21T09:35:41.605Z,100269.54
2019-04-21T09:38:29.853Z,100266.19
2019-04-21T09:40:54.008Z,100263.28
2019-04-21T09:43:30.765Z,100262.64
2019-04-21T09:45:54.222Z,100266.03
2019-04-21T09:48:25.879Z,100253.83
2019-04-21T09:50:55.157Z,100249.73
2019-04-21T09:53:32.790Z,100244.02
2019-04-21T09:56:02.759Z,100247.59
2019-04-21T09:58:34.717Z,100242.69
2019-04-21T10:01:09.832Z,100241.70
2019-04-21T10:03:38.286Z,100243.56
2019-04-21T10:06:02.803Z,100236.83
2019-04-21T10:08:34.059Z,100232.67
2019-04-21T10:11:05.285Z,100231.19
2019-04-21T10:13:36.084Z,100226.48
2019-04-21T10:16:23.932Z,100219.41
2019-04-21T10:18:54.627Z,100214.52
2019-04-21T10:21:25.825Z,100211.09
2019-04-21T10:23:55.735Z,100216.13
2019-04-21T10:26:26.338Z,100207.69
2019-04-21T10:29:22.111Z,100203.03
2019-04-21T10:31:46.861Z,100205.79
2019-04-21T10:34:17.425Z,100200.08
2019-04-21T10:36:47.203Z,100197.31
2019-04-21T10:39:17.707Z,100189.73
2019-04-21T10:41:47.769Z,100191.36
2019-04-21T10:44:17.184Z,100182.20
2019-04-21T10:46:48.961Z,100182.25
2019-04-21T10:49:19.012Z,100181.77
2019-04-21T10:51:49.188Z,100184.84
2019-04-21T10:54:19.993Z,100174.25
2019-04-21T10:56:50.814Z,100173.42
2019-04-21T10:59:20.644Z,100171.86
2019-04-21T11:01:50.523Z,100164.77
2019-04-21T11:04:40.171Z,100153.81
2019-04-21T11:07:17.543Z,100149.52
2019-04-21T11:09:42.400Z,100150.14
2019-04-21T11:12:11.827Z,100145.44
2019-04-21T11:14:41.273Z,100148.78
2019-04-21T11:17:14.166Z,100143.25
2019-04-21T11:19:43.713Z,100142.33
2019-04-21T11:22:13.112Z,100140.06
2019-04-21T11:24:43.032Z,100136.81
2019-04-21T11:27:12.776Z,100130.34
2019-04-21T11:29:43.290Z,100131.31
2019-04-21T11:32:14.676Z,100130.00
2019-04-21T11:34:45.330Z,100129.36
2019-04-21T11:37:16.762Z,100117.11
2019-04-21T11:39:56.663Z,100116.08
2019-04-21T11:42:19.563Z,100116.38
2019-04-21T11:44:49.525Z,100117.27
2019-04-21T11:47:20.649Z,100113.96
2019-04-21T11:49:50.264Z,100108.81
2019-04-21T11:52:41.133Z,100100.84
2019-04-21T11:55:11.134Z,100102.55
2019-04-21T11:57:44.979Z,100096.98
2019-04-21T12:00:17.643Z,100091.98
2019-04-21T12:02:51.211Z,100088.89
2019-04-21T12:05:23.619Z,100093.46
2019-04-21T12:07:53.467Z,100094.91
2019-04-21T12:10:23.890Z,100088.11
2019-04-21T12:12:55.433Z,100082.47
2019-04-21T12:15:27.112Z,100079.05
2019-04-21T12:17:57.075Z,100074.79
2019-04-21T12:20:28.592Z,100065.17
2019-04-21T12:22:58.915Z,100065.52
2019-04-21T12:25:33.334Z,100063.14
2019-04-21T12:28:03.679Z,100054.67
2019-04-21T12:30:37.803Z,100059.95
2019-04-21T12:33:13.913Z,100048.34
2019-04-21T12:35:43.890Z,100046.87
2019-04-21T12:38:13.863Z,100042.16
2019-04-21T12:40:44.354Z,100046.49
2019-04-21T12:43:14.924Z,100048.67
2019-04-21T12:45:44.439Z,100041.02
2019-04-21T12:48:14.259Z,100038.34
2019-04-21T12:50:45.864Z,100027.38
2019-04-21T12:53:16.023Z,100024.94
2019-04-21T12:55:48.027Z,100022.56
2019-04-21T12:58:17.624Z,100014.58
2019-04-21T13:00:47.268Z,100010.92
2019-04-21T13:03:17.437Z,100009.98
2019-04-21T13:05:47.561Z,100005.82
2019-04-21T13:08:17.694Z,99999.59
2019-04-21T13:10:48.448Z,99993.48
2019-04-21T13:13:17.955Z,99990.59
2019-04-21T13:15:47.484Z,99983.95
2019-04-21T13:18:16.939Z,99974.04
2019-04-21T13:20:46.844Z,99974.30
2019-04-21T13:23:16.747Z,99974.59
2019-04-21T13:25:47.733Z,99976.73
2019-04-21T13:28:18.655Z,99963.58
2019-04-21T13:30:48.589Z,99964.22
2019-04-21T13:33:18.897Z,99960.88
2019-04-21T13:35:48.846Z,99963.82
2019-04-21T13:38:29.145Z,99957.66
2019-04-21T13:41:05.281Z,99950.39
2019-04-21T13:43:23.133Z,99944.75
2019-04-21T13:45:53.971Z,99953.18
2019-04-21T13:48:24.361Z,99948.19
2019-04-21T13:50:55.259Z,99944.32
2019-04-21T13:53:25.055Z,99937.55
2019-04-21T13:55:56.305Z,99937.04
2019-04-21T13:58:26.394Z,99926.27
2019-04-21T14:00:56.100Z,99926.37
2019-04-21T14:03:26.713Z,99913.61
2019-04-21T14:05:56.353Z,99916.41
2019-04-21T14:08:27.254Z,99915.77
2019-04-21T14:10:57.566Z,99906.42
2019-04-21T14:13:30.298Z,99910.61
2019-04-21T14:15:59.976Z,99905.21
2019-04-21T14:18:30.978Z,99897.64
2019-04-21T14:21:00.987Z,99897.73
2019-04-21T14:23:37.897Z,99896.41
2019-04-21T14:26:02.229Z,99890.08
2019-04-21T14:28:32.197Z,99888.44
2019-04-21T14:31:04.293Z,99882.27
2019-04-21T14:33:34.249Z,99878.47
2019-04-21T14:36:05.191Z,99876.96
2019-04-21T14:38:36.530Z,99879.16
2019-04-21T14:41:06.192Z,99869.96
2019-04-21T14:43:36.209Z,99868.88
2019-04-21T14:46:13.511Z,99868.48
2019-04-21T14:49:03.576Z,99871.80
2019-04-21T14:51:52.733Z,99867.09
2019-04-21T14:54:36.444Z,99855.86
2019-04-21T14:57:07.244Z,99856.17
2019-04-21T14:59:37.251Z,99854.41
2019-04-21T15:04:57.839Z,99850.35
2019-04-21T15:07:27.606Z,99842.07
2019-04-21T15:10:04.645Z,99841.12
2019-04-21T15:12:29.803Z,99842.91
2019-04-21T15:15:00.209Z,99842.91
2019-04-21T15:17:29.592Z,99842.80
2019-04-21T15:20:04.698Z,99839.78
2019-04-21T15:22:30.501Z,99835.76
2019-04-21T15:25:00.583Z,99832.98
2019-04-21T15:27:30.795Z,99826.88
2019-04-21T15:30:00.648Z,99822.50
2019-04-21T15:32:30.567Z,99820.41
2019-04-21T15:35:00.409Z,99816.55
2019-04-21T15:37:29.924Z,99813.51
2019-04-21T15:40:13.416Z,99809.34
2019-04-21T15:42:30.698Z,99807.06
2019-04-21T15:45:00.946Z,99806.61
2019-04-21T15:47:31.703Z,99801.88
2019-04-21T15:50:07.474Z,99798.67
2019-04-21T15:52:33.834Z,99796.66
2019-04-21T15:55:05.377Z,99795.08
2019-04-21T15:57:46.992Z,99787.98
2019-04-21T16:00:24.677Z,99780.41
2019-04-21T16:02:54.842Z,99776.95
2019-04-21T16:05:24.614Z,99777.33
2019-04-21T16:07:54.203Z,99778.97
2019-04-21T16:10:34.592Z,99776.68
2019-04-21T16:12:56.015Z,99774.52
2019-04-21T16:15:26.309Z,99766.61
2019-04-21T16:17:57.157Z,99764.47
2019-04-21T16:20:28.064Z,99764.73
2019-04-21T16:22:57.593Z,99756.97
2019-04-21T16:25:28.448Z,99753.27
2019-04-21T16:27:59.387Z,99753.22
2019-04-21T16:30:29.024Z,99749.78
2019-04-21T16:33:01.968Z,99748.44
2019-04-21T16:35:31.720Z,99744.27
2019-04-21T16:38:02.535Z,99740.09
2019-04-21T16:40:43.077Z,99736.45
2019-04-21T16:43:03.888Z,99739.20
2019-04-21T16:45:34.704Z,99730.27
2019-04-21T16:48:05.333Z,99729.70
2019-04-21T16:50:37.579Z,99723.62
2019-04-21T16:53:14.351Z,99719.55
2019-04-21T16:56:02.606Z,99720.92
2019-04-21T16:58:36.750Z,99717.78
2019-04-21T17:01:12.773Z,99717.20
2019-04-21T17:03:40.137Z,99714.55
2019-04-21T17:06:11.168Z,99711.11
2019-04-21T17:08:41.030Z,99704.66
2019-04-21T17:11:17.542Z,99700.34
2019-04-21T17:13:42.173Z,99695.03
2019-04-21T17:16:40.524Z,99691.02
2019-04-21T17:18:57.506Z,99687.74
2019-04-21T17:21:16.639Z,99687.58
2019-04-21T17:23:46.500Z,99691.84
2019-04-21T17:26:17.166Z,99691.43
2019-04-21T17:28:48.873Z,99683.17
2019-04-21T17:31:18.656Z,99684.87
2019-04-21T17:33:51.968Z,99682.23
2019-04-21T17:36:19.332Z,99676.97
2019-04-21T17:39:09.028Z,99679.42
2019-04-21T17:41:49.433Z,99673.98
2019-04-21T17:44:10.654Z,99669.42
2019-04-21T17:46:46.608Z,99670.14
2019-04-21T17:49:12.808Z,99671.84
2019-04-21T17:51:58.853Z,99667.52
2019-04-21T17:54:33.816Z,99664.66
2019-04-21T17:57:23.168Z,99663.36
2019-04-21T17:59:58.921Z,99667.52
2019-04-21T18:02:20.113Z,99665.14
2019-04-21T18:04:58.003Z,99668.26
2019-04-21T18:07:27.277Z,99665.41
2019-04-21T18:12:31.831Z,99666.83
2019-04-21T18:14:59.294Z,99668.64
2019-04-21T18:17:20.452Z,99666.43
2019-04-21T18:19:52.948Z,99661.02
2019-04-21T18:22:45.476Z,99667.48
2019-04-21T18:25:33.241Z,99667.53
2019-04-21T18:27:54.613Z,99673.20
2019-04-21T18:30:48.911Z,99674.23
2019-04-21T18:33:25.081Z,99670.45
2019-04-21T18:36:02.946Z,99672.87
2019-04-21T18:39:04.081Z,99671.18
2019-04-21T18:41:21.775Z,99666.77
2019-04-21T18:44:26.591Z,99670.27
2019-04-21T18:46:56.736Z,99671.38
2019-04-21T18:49:09.270Z,99673.19
2019-04-21T18:51:59.613Z,99677.44
2019-04-21T18:54:47.205Z,99673.77
2019-04-21T18:57:08.091Z,99669.80
2019-04-21T18:59:36.192Z,99672.95
2019-04-21T19:02:08.074Z,99674.98
2019-04-21T19:04:35.339Z,99685.55
2019-04-21T19:07:18.240Z,99689.16
2019-04-21T19:10:09.884Z,99685.16
2019-04-21T19:12:35.590Z,99685.07
2019-04-21T19:14:56.056Z,99683.22
2019-04-21T19:18:12.450Z,99688.91
2019-04-21T19:20:07.772Z,99685.11
2019-04-21T19:22:34.581Z,99686.16
2019-04-21T19:25:09.612Z,99689.34
2019-04-21T19:27:32.449Z,99686.70
2019-04-21T19:30:12.079Z,99690.27
2019-04-21T19:32:37.581Z,99688.11
2019-04-21T19:34:55.801Z,99688.78
2019-04-21T19:37:26.167Z,99686.81
2019-04-21T19:40:09.618Z,99688.22
2019-04-21T19:42:51.178Z,99690.58
2019-04-21T19:45:27.791Z,99690.89
2019-04-21T19:48:08.041Z,99691.16
2019-04-21T19:50:41.179Z,99686.27
2019-04-21T19:53:02.471Z,99682.38
2019-04-21T19:55:20.490Z,99684.91
2019-04-21T19:57:50.456Z,99680.91
2019-04-21T20:00:24.734Z,99677.73
2019-04-21T20:02:54.508Z,99678.55
2019-04-21T20:05:36.129Z,99678.81
2019-04-21T20:08:14.544Z,99678.44
2019-04-21T20:10:48.342Z,99671.63
2019-04-21T20:13:26.036Z,99672.74
2019-04-21T20:15:52.035Z,99671.27
2019-04-21T20:18:16.501Z,99666.82
2019-04-21T20:20:35.247Z,99672.66
2019-04-21T20:23:08.930Z,99668.09
2019-04-21T20:25:43.696Z,99662.04
2019-04-21T20:28:17.018Z,99661.01
2019-04-21T20:30:58.415Z,99661.08
2019-04-21T20:36:01.971Z,99658.87
2019-04-21T20:38:30.118Z,99662.02
2019-04-21T20:40:56.952Z,99667.63
2019-04-21T20:43:38.166Z,99662.61
2019-04-21T20:46:07.901Z,99659.05
2019-04-21T20:48:40.138Z,99666.21
2019-04-21T20:51:11.620Z,99664.05
2019-04-21T20:53:42.583Z,99662.77
2019-04-21T20:56:08.994Z,99657.17
2019-04-21T20:58:49.337Z,99653.28
2019-04-21T21:03:58.093Z,99653.23
2019-04-21T21:06:18.735Z,99646.92
2019-04-21T21:08:50.192Z,99643.08
2019-04-21T21:11:20.897Z,99639.62
2019-04-21T21:13:53.965Z,99638.50
2019-04-21T21:16:35.397Z,99636.51
2019-04-21T21:19:15.768Z,99638.52
2019-04-21T21:21:24.401Z,99640.21
2019-04-21T21:23:52.710Z,99633.67
2019-04-21T21:26:31.170Z,99627.59
2019-04-21T21:28:56.285Z,99631.14
2019-04-21T21:31:35.663Z,99628.27
2019-04-21T21:34:24.237Z,99625.27
2019-04-21T21:36:31.527Z,99624.88
2019-04-21T21:39:09.644Z,99621.70
2019-04-21T21:41:28.431Z,99626.86
2019-04-21T21:43:58.134Z,99629.34
2019-04-21T21:46:40.323Z,99630.10
2019-04-21T21:49:05.081Z,99629.86
2019-04-21T21:51:43.005Z,99634.27
2019-04-21T21:54:05.417Z,99623.65
2019-04-21T21:56:36.402Z,99620.36
2019-04-21T21:59:13.545Z,99621.17
2019-04-21T22:01:43.183Z,99624.48
2019-04-21T22:04:15.285Z,99623.53
2019-04-21T22:06:47.796Z,99616.32
2019-04-21T22:09:12.664Z,99616.09
2019-04-21T22:11:44.257Z,99612.59
2019-04-21T22:14:24.370Z,99611.83
2019-04-21T22:17:05.968Z,99615.29
2019-04-21T22:19:36.724Z,99606.72
2019-04-21T22:22:08.102Z,99606.37
2019-04-21T22:24:35.164Z,99611.48
2019-04-21T22:26:52.473Z,99608.43
2019-04-21T22:29:23.536Z,99607.72
2019-04-21T22:32:02.749Z,99606.02
2019-04-21T22:34:30.248Z,99605.00
2019-04-21T22:37:13.482Z,99599.19
2019-04-21T22:39:44.974Z,99599.09
2019-04-21T22:42:05.030Z,99606.30
2019-04-21T22:44:30.193Z,99602.49
2019-04-21T22:47:09.663Z,99599.89
2019-04-21T22:49:32.594Z,99599.41
2019-04-21T22:52:10.347Z,99596.00
2019-04-21T22:54:38.153Z,99596.06
2019-04-21T22:57:12.036Z,99589.52
2019-04-21T22:59:37.294Z,99589.19
2019-04-21T23:02:15.404Z,99588.79
2019-04-21T23:04:43.773Z,99586.99
2019-04-21T23:07:13.529Z,99581.25
2019-04-21T23:09:40.678Z,99577.89
2019-04-21T23:12:12.415Z,99576.48
2019-04-21T23:14:49.386Z,99577.02
2019-04-21T23:17:32.789Z,99573.18
2019-04-21T23:20:05.682Z,99570.36
2019-04-21T23:22:32.632Z,99567.13
2019-04-21T23:25:09.532Z,99564.16
2019-04-21T23:27:34.386Z,99567.11
2019-04-21T23:30:13.737Z,99561.58
2019-04-21T23:32:30.531Z,99564.59
2019-04-21T23:34:54.404Z,99560.56
2019-04-21T23:37:25.616Z,99561.16
2019-04-21T23:40:01.034Z,99557.06
2019-04-21T23:42:31.784Z,99559.14
2019-04-21T23:44:59.582Z,99560.66
2019-04-21T23:47:41.757Z,99557.98
2019-04-21T23:50:07.416Z,99563.03
2019-04-21T23:52:31.817Z,99562.19
2019-04-21T23:55:01.259Z,99558.12
2019-04-21T23:57:37.954Z,99557.39
